createdAt,value
2022-11-28T00:02:14.407Z,89
2022-11-28T00:12:14.312Z,89
2022-11-28T00:22:14.299Z,89
2022-11-28T00:32:14.317Z,89
2022-11-28T00:42:14.284Z,89
2022-11-28T00:52:14.268Z,90
2022-11-28T01:02:14.306Z,90
2022-11-28T01:12:14.244Z,90
2022-11-28T01:22:14.251Z,90
2022-11-28T01:32:14.199Z,90
2022-11-28T01:42:14.230Z,90
2022-11-28T01:52:14.163Z,90
2022-11-28T02:02:14.213Z,90
2022-11-28T02:12:14.194Z,90
2022-11-28T02:22:19.198Z,90
2022-11-28T02:32:14.125Z,90
2022-11-28T02:42:14.151Z,90
2022-11-28T02:52:14.125Z,90
2022-11-28T03:02:14.224Z,90
2022-11-28T03:12:14.145Z,90
2022-11-28T03:22:14.090Z,90
2022-11-28T03:32:14.071Z,90
2022-11-28T03:42:14.117Z,90
2022-11-28T03:52:14.067Z,90
2022-11-28T04:02:14.039Z,90
2022-11-28T04:12:14.081Z,90
2022-11-28T04:22:14.017Z,90
2022-11-28T04:32:14.009Z,90
2022-11-28T04:42:14.056Z,90
2022-11-28T04:52:13.998Z,90
2022-11-28T05:02:14.038Z,90
2022-11-28T05:12:13.996Z,90
2022-11-28T05:22:13.954Z,90
2022-11-28T05:32:13.970Z,90
2022-11-28T05:42:13.973Z,90
2022-11-28T05:52:13.917Z,90
2022-11-28T06:02:13.994Z,90
2022-11-28T06:12:13.920Z,90
2022-11-28T06:22:13.958Z,90
2022-11-28T06:32:16.548Z,90
2022-11-28T06:42:13.899Z,90
2022-11-28T06:52:13.886Z,90
2022-11-28T07:02:13.883Z,90
2022-11-28T07:12:13.842Z,90
2022-11-28T07:22:13.856Z,90
2022-11-28T07:32:13.934Z,90
2022-11-28T07:42:13.844Z,90
2022-11-28T07:52:13.793Z,90
2022-11-28T08:02:13.856Z,90
2022-11-28T08:12:13.824Z,90
2022-11-28T08:22:13.786Z,90
2022-11-28T08:32:13.752Z,90
2022-11-28T08:42:13.772Z,90
2022-11-28T08:52:13.727Z,90
2022-11-28T09:02:13.725Z,89
2022-11-28T09:12:13.777Z,89
2022-11-28T09:22:13.704Z,89
2022-11-28T09:32:13.701Z,89
2022-11-28T09:42:13.712Z,89
2022-11-28T09:52:13.719Z,89
2022-11-28T10:02:13.633Z,89
2022-11-28T10:12:13.629Z,88
2022-11-28T10:22:13.596Z,88
2022-11-28T10:32:13.574Z,88
2022-11-28T10:42:13.608Z,88
2022-11-28T10:52:13.567Z,88
2022-11-28T11:02:13.559Z,87
2022-11-28T11:12:13.672Z,87
2022-11-28T11:22:13.528Z,87
2022-11-28T11:32:13.507Z,87
2022-11-28T11:42:13.526Z,87
2022-11-28T11:52:13.477Z,87
2022-11-28T12:02:13.503Z,87
2022-11-28T12:12:13.445Z,87
2022-11-28T12:22:13.472Z,86
2022-11-28T12:32:13.450Z,86
2022-11-28T12:42:13.392Z,87
2022-11-28T12:52:13.396Z,87
2022-11-28T13:02:13.427Z,87
2022-11-28T13:12:13.354Z,87
2022-11-28T13:22:13.398Z,87
2022-11-28T13:32:13.311Z,87
2022-11-28T13:42:44.298Z,88
2022-11-28T13:52:13.311Z,88
2022-11-28T14:02:13.382Z,88
2022-11-28T14:12:13.275Z,89
2022-11-28T14:22:13.272Z,89
2022-11-28T14:32:29.449Z,89
2022-11-28T14:42:30.620Z,90
2022-11-28T14:52:37.663Z,90
2022-11-28T15:02:13.260Z,90
2022-11-28T15:12:13.188Z,90
2022-11-28T15:22:13.207Z,91
2022-11-28T15:32:13.169Z,91
2022-11-28T15:42:13.170Z,91
2022-11-28T15:52:13.166Z,91
2022-11-28T16:02:13.135Z,91
2022-11-28T16:12:13.112Z,91
2022-11-28T16:22:13.127Z,92
2022-11-28T16:32:13.066Z,92
2022-11-28T16:42:13.042Z,92
2022-11-28T16:52:13.086Z,92
2022-11-28T17:02:13.053Z,92
2022-11-28T17:12:13.080Z,92
2022-11-28T17:22:13.041Z,92
2022-11-28T17:32:12.992Z,92
2022-11-28T17:42:12.987Z,92
2022-11-28T17:52:12.996Z,92
2022-11-28T18:02:13.027Z,93
2022-11-28T18:12:12.994Z,93
2022-11-28T18:22:12.985Z,93
2022-11-28T18:32:12.922Z,93
2022-11-28T18:42:12.904Z,93
2022-11-28T18:52:12.971Z,93
2022-11-28T19:02:12.932Z,93
2022-11-28T19:12:12.941Z,93
2022-11-28T19:22:12.873Z,93
2022-11-28T19:32:12.860Z,93
2022-11-28T19:42:12.828Z,93
2022-11-28T19:52:12.872Z,93
2022-11-28T20:02:12.906Z,93
2022-11-28T20:12:12.823Z,93
2022-11-28T20:22:12.823Z,93
2022-11-28T20:32:12.801Z,93
2022-11-28T20:42:12.783Z,94
2022-11-28T20:52:12.809Z,94
2022-11-28T21:02:12.764Z,94
2022-11-28T21:12:15.504Z,94
2022-11-28T21:22:12.745Z,94
2022-11-28T21:32:12.706Z,94
2022-11-28T21:42:17.445Z,94
2022-11-28T21:52:12.701Z,94
2022-11-28T22:02:12.845Z,94
2022-11-28T22:12:12.673Z,94
2022-11-28T22:22:12.664Z,94
2022-11-28T22:32:12.705Z,94
2022-11-28T22:42:12.649Z,94
2022-11-28T22:52:12.609Z,94
2022-11-28T23:02:12.712Z,94
2022-11-28T23:12:12.631Z,94
2022-11-28T23:22:12.589Z,94
2022-11-28T23:32:12.584Z,94
2022-11-28T23:42:12.538Z,94
2022-11-28T23:52:12.555Z,94
